createdAt,value
2018-11-27T00:00:50.137Z,20.70
2018-11-27T00:03:18.079Z,21.77
2018-11-27T00:05:46.027Z,20.30
2018-11-27T00:08:13.841Z,21.23
2018-11-27T00:10:41.477Z,20.30
2018-11-27T00:13:11.376Z,21.83
2018-11-27T00:15:41.037Z,21.77
2018-11-27T00:18:10.119Z,20.37
2018-11-27T00:20:40.473Z,20.77
2018-11-27T00:23:08.703Z,20.63
2018-11-27T00:25:37.345Z,22.60
2018-11-27T00:28:06.054Z,20.67
2018-11-27T00:30:34.269Z,20.93
2018-11-27T00:33:01.917Z,21.60
2018-11-27T00:35:29.680Z,20.43
2018-11-27T00:37:59.421Z,21.10
2018-11-27T00:40:27.233Z,21.10
2018-11-27T00:42:54.953Z,21.00
2018-11-27T00:45:22.789Z,23.60
2018-11-27T00:47:50.907Z,21.23
2018-11-27T00:50:21.500Z,20.80
2018-11-27T00:52:48.989Z,20.77
2018-11-27T00:55:17.489Z,22.60
2018-11-27T00:57:46.310Z,19.93
2018-11-27T01:00:14.894Z,21.93
2018-11-27T01:02:43.620Z,21.27
2018-11-27T01:05:13.281Z,22.23
2018-11-27T01:07:40.962Z,20.93
2018-11-27T01:10:11.173Z,21.03
2018-11-27T01:12:38.745Z,21.20
2018-11-27T01:15:07.590Z,21.87
2018-11-27T01:17:35.272Z,21.87
2018-11-27T01:20:02.846Z,22.30
2018-11-27T01:22:30.382Z,22.93
2018-11-27T01:24:57.908Z,21.57
2018-11-27T01:27:25.473Z,22.17
2018-11-27T01:29:53.068Z,22.07
2018-11-27T01:32:20.684Z,21.47
2018-11-27T01:34:48.414Z,22.80
2018-11-27T01:37:15.915Z,21.23
2018-11-27T01:39:43.583Z,23.30
2018-11-27T01:42:12.080Z,21.33
2018-11-27T01:44:39.703Z,23.40
2018-11-27T01:47:07.201Z,22.47
2018-11-27T01:49:34.918Z,22.40
2018-11-27T01:52:02.418Z,23.03
2018-11-27T01:54:29.992Z,22.40
2018-11-27T01:56:57.561Z,22.47
2018-11-27T01:59:25.076Z,21.57
2018-11-27T02:01:52.641Z,21.67
2018-11-27T02:04:20.183Z,23.37
2018-11-27T02:06:47.691Z,22.53
2018-11-27T02:09:15.251Z,24.17
2018-11-27T02:11:42.783Z,23.67
2018-11-27T02:14:10.336Z,21.67
2018-11-27T02:16:37.902Z,23.50
2018-11-27T02:19:05.523Z,21.20
2018-11-27T02:21:33.044Z,23.23
2018-11-27T02:24:00.586Z,22.50
2018-11-27T02:26:28.023Z,24.03
2018-11-27T02:28:55.661Z,23.17
2018-11-27T02:31:23.168Z,21.77
2018-11-27T02:33:50.632Z,22.90
2018-11-27T02:36:18.120Z,22.27
2018-11-27T02:38:45.593Z,21.50
2018-11-27T02:41:13.105Z,22.10
2018-11-27T02:43:40.569Z,20.83
2018-11-27T02:46:08.047Z,21.50
2018-11-27T02:48:35.729Z,21.10
2018-11-27T02:51:03.214Z,20.80
2018-11-27T02:53:30.783Z,21.30
2018-11-27T02:55:58.424Z,20.40
2018-11-27T02:58:26.072Z,22.10
2018-11-27T03:00:53.639Z,21.90
2018-11-27T03:03:21.237Z,22.30
2018-11-27T03:05:48.786Z,20.90
2018-11-27T03:08:16.333Z,22.00
2018-11-27T03:10:43.850Z,19.70
2018-11-27T03:13:11.419Z,20.03
2018-11-27T03:15:38.947Z,19.57
2018-11-27T03:18:06.548Z,19.80
2018-11-27T03:20:34.037Z,20.97
2018-11-27T03:23:01.556Z,20.57
2018-11-27T03:25:29.262Z,21.10
2018-11-27T03:27:56.911Z,19.03
2018-11-27T03:30:25.506Z,20.80
2018-11-27T03:32:54.194Z,20.03
2018-11-27T03:35:22.718Z,21.27
2018-11-27T03:37:50.556Z,21.37
2018-11-27T03:40:22.411Z,20.07
2018-11-27T03:42:50.482Z,19.87
2018-11-27T03:45:18.803Z,20.07
2018-11-27T03:47:46.362Z,20.50
2018-11-27T03:50:16.024Z,19.17
2018-11-27T03:52:43.727Z,19.53
2018-11-27T03:55:11.834Z,19.27
2018-11-27T03:57:39.542Z,20.10
2018-11-27T04:00:38.145Z,20.17
2018-11-27T04:03:08.844Z,22.57
2018-11-27T04:05:36.655Z,20.87
2018-11-27T04:08:05.201Z,21.03
2018-11-27T04:10:32.830Z,21.40
2018-11-27T04:13:00.392Z,20.47
2018-11-27T04:15:27.964Z,21.60
2018-11-27T04:17:55.544Z,19.50
2018-11-27T04:20:23.997Z,19.70
2018-11-27T04:22:51.567Z,21.00
2018-11-27T04:25:19.143Z,21.97
2018-11-27T04:27:47.391Z,20.67
2018-11-27T04:30:17.578Z,20.07
2018-11-27T04:32:45.164Z,19.67
2018-11-27T04:35:14.615Z,19.50
2018-11-27T04:37:42.311Z,20.65
2018-11-27T04:40:11.198Z,20.33
2018-11-27T04:42:38.705Z,22.90
2018-11-27T04:45:09.253Z,20.80
2018-11-27T04:47:36.839Z,20.17
2018-11-27T04:50:05.920Z,20.90
2018-11-27T04:52:33.612Z,19.57
2018-11-27T04:55:01.147Z,20.57
2018-11-27T04:57:28.630Z,20.73
2018-11-27T04:59:56.223Z,21.90
2018-11-27T05:02:23.777Z,21.30
2018-11-27T05:04:51.366Z,20.07
2018-11-27T05:07:18.975Z,20.27
2018-11-27T05:09:46.443Z,21.30
2018-11-27T05:12:13.908Z,19.53
2018-11-27T05:14:41.412Z,20.53
2018-11-27T05:17:08.940Z,20.33
2018-11-27T05:19:36.427Z,20.57
2018-11-27T05:22:04.031Z,19.67
2018-11-27T05:24:31.518Z,20.40
2018-11-27T05:26:59.018Z,20.03
2018-11-27T05:29:26.456Z,22.00
2018-11-27T05:31:53.917Z,22.17
2018-11-27T05:34:21.471Z,21.47
2018-11-27T05:36:48.949Z,20.83
2018-11-27T05:39:16.463Z,20.87
2018-11-27T05:41:43.990Z,22.10
2018-11-27T05:44:11.591Z,21.10
2018-11-27T05:46:39.269Z,21.67
2018-11-27T05:49:06.885Z,21.70
2018-11-27T05:51:34.348Z,20.63
2018-11-27T05:54:01.813Z,21.40
2018-11-27T05:56:29.360Z,22.00
2018-11-27T05:58:56.939Z,23.03
2018-11-27T06:01:24.632Z,23.83
2018-11-27T06:03:52.110Z,21.80
2018-11-27T06:06:19.700Z,21.90
2018-11-27T06:08:48.028Z,22.57
2018-11-27T06:11:15.611Z,21.47
2018-11-27T06:13:44.009Z,21.73
2018-11-27T06:16:11.527Z,21.03
2018-11-27T06:18:39.042Z,22.20
2018-11-27T06:21:07.855Z,23.03
2018-11-27T06:23:35.579Z,20.77
2018-11-27T06:26:03.383Z,22.77
2018-11-27T06:28:31.212Z,22.77
2018-11-27T06:30:58.957Z,24.40
2018-11-27T06:33:26.490Z,20.93
2018-11-27T06:35:54.205Z,22.30
2018-11-27T06:38:21.670Z,24.80
2018-11-27T06:40:49.258Z,22.70
2018-11-27T06:43:16.880Z,22.50
2018-11-27T06:45:44.564Z,22.87
2018-11-27T06:48:12.164Z,21.93
2018-11-27T06:50:39.900Z,22.67
2018-11-27T06:53:07.769Z,21.23
2018-11-27T06:55:35.535Z,20.90
2018-11-27T06:58:03.657Z,21.37
2018-11-27T07:00:31.258Z,22.77
2018-11-27T07:02:59.266Z,21.97
2018-11-27T07:05:26.912Z,24.50
2018-11-27T07:07:54.445Z,23.20
2018-11-27T07:10:30.088Z,23.27
2018-11-27T07:13:03.365Z,23.50
2018-11-27T07:15:31.177Z,26.73
2018-11-27T07:17:58.708Z,28.90
2018-11-27T07:20:26.265Z,24.77
2018-11-27T07:22:54.162Z,25.57
2018-11-27T07:25:21.721Z,27.40
2018-11-27T07:27:49.826Z,24.47
2018-11-27T07:30:18.531Z,25.73
2018-11-27T07:32:46.142Z,25.00
2018-11-27T07:35:14.730Z,25.30
2018-11-27T07:37:42.357Z,24.57
2018-11-27T07:40:12.231Z,25.20
2018-11-27T07:42:39.846Z,23.87
2018-11-27T07:46:11.879Z,25.20
2018-11-27T07:48:39.548Z,24.10
2018-11-27T07:51:07.921Z,22.77
2018-11-27T07:53:35.430Z,21.27
2018-11-27T07:56:03.297Z,24.13
2018-11-27T07:58:30.796Z,23.83
2018-11-27T08:00:58.396Z,23.80
2018-11-27T08:03:26.060Z,26.60
2018-11-27T08:05:53.615Z,26.30
2018-11-27T08:08:21.157Z,26.40
2018-11-27T08:10:50.046Z,25.20
2018-11-27T08:13:17.551Z,25.43
2018-11-27T08:15:45.085Z,27.10
2018-11-27T08:18:12.706Z,24.50
2018-11-27T08:20:40.312Z,25.80
2018-11-27T08:23:09.052Z,26.30
2018-11-27T08:25:36.662Z,25.73
2018-11-27T08:28:05.607Z,25.33
2018-11-27T08:30:33.259Z,26.23
2018-11-27T08:33:00.868Z,26.97
2018-11-27T08:35:29.271Z,29.50
2018-11-27T08:37:57.793Z,26.37
2018-11-27T08:40:26.503Z,31.97
2018-11-27T08:42:54.268Z,32.00
2018-11-27T08:45:22.790Z,30.30
2018-11-27T08:47:51.117Z,27.30
2018-11-27T08:50:20.800Z,27.73
2018-11-27T08:52:50.045Z,29.63
2018-11-27T08:55:19.331Z,29.27
2018-11-27T08:57:47.289Z,29.37
2018-11-27T09:00:16.948Z,30.00
2018-11-27T09:02:45.536Z,27.97
2018-11-27T09:05:12.783Z,28.83
2018-11-27T09:07:41.105Z,28.50
2018-11-27T09:10:15.475Z,27.40
2018-11-27T09:12:43.160Z,27.20
2018-11-27T09:15:13.790Z,28.57
2018-11-27T09:17:43.758Z,26.90
2018-11-27T09:20:11.898Z,27.53
2018-11-27T09:22:39.386Z,28.43
2018-11-27T09:25:11.320Z,27.03
2018-11-27T09:27:38.942Z,29.30
2018-11-27T09:30:14.887Z,30.03
2018-11-27T09:32:42.716Z,27.73
2018-11-27T09:35:10.629Z,28.63
2018-11-27T09:37:38.485Z,28.70
2018-11-27T09:40:13.632Z,27.87
2018-11-27T09:42:41.254Z,31.67
2018-11-27T09:45:12.063Z,31.10
2018-11-27T09:47:39.972Z,29.07
2018-11-27T09:50:10.215Z,28.70
2018-11-27T09:52:37.882Z,31.00
2018-11-27T09:55:10.973Z,32.17
2018-11-27T09:57:38.460Z,31.50
2018-11-27T10:00:14.895Z,29.53
2018-11-27T10:02:42.379Z,28.50
2018-11-27T10:05:10.676Z,30.23
2018-11-27T10:07:38.394Z,28.70
2018-11-27T10:10:07.989Z,28.60
2018-11-27T10:12:35.586Z,28.40
2018-11-27T10:15:03.837Z,29.33
2018-11-27T10:17:31.382Z,27.80
2018-11-27T10:19:59.500Z,28.10
2018-11-27T10:22:27.477Z,27.57
2018-11-27T10:24:54.935Z,27.33
2018-11-27T10:27:22.404Z,25.77
2018-11-27T10:29:50.061Z,28.30
2018-11-27T10:32:17.555Z,27.67
2018-11-27T10:34:45.288Z,27.10
2018-11-27T10:37:12.765Z,27.87
2018-11-27T10:39:40.872Z,27.00
2018-11-27T10:42:08.475Z,25.10
2018-11-27T10:44:35.924Z,24.27
2018-11-27T10:47:03.694Z,25.53
2018-11-27T10:49:31.306Z,23.80
2018-11-27T10:51:58.781Z,24.27
2018-11-27T10:54:26.456Z,25.13
2018-11-27T10:56:53.968Z,23.97
2018-11-27T10:59:21.725Z,24.40
2018-11-27T11:01:52.263Z,23.63
2018-11-27T11:04:19.870Z,24.27
2018-11-27T11:06:47.439Z,24.10
2018-11-27T11:09:15.068Z,23.97
2018-11-27T11:11:42.626Z,25.10
2018-11-27T11:14:10.107Z,22.63
2018-11-27T11:16:37.948Z,24.40
2018-11-27T11:19:06.802Z,22.70
2018-11-27T11:21:34.366Z,23.20
2018-11-27T11:24:01.855Z,24.87
2018-11-27T11:26:29.326Z,25.00
2018-11-27T11:28:57.051Z,24.40
2018-11-27T11:31:24.591Z,22.90
2018-11-27T11:33:52.193Z,22.33
2018-11-27T11:36:19.860Z,21.60
2018-11-27T11:38:47.298Z,24.17
2018-11-27T11:41:14.854Z,21.83
2018-11-27T11:43:42.323Z,23.80
2018-11-27T11:46:09.739Z,24.80
2018-11-27T11:48:37.930Z,22.20
2018-11-27T11:51:05.979Z,23.30
2018-11-27T11:53:33.554Z,22.10
2018-11-27T11:56:01.055Z,22.17
2018-11-27T11:58:28.554Z,22.00
2018-11-27T12:00:57.040Z,22.27
2018-11-27T12:03:24.546Z,21.13
2018-11-27T12:05:52.258Z,21.93
2018-11-27T12:08:22.909Z,21.63
2018-11-27T12:10:50.524Z,22.57
2018-11-27T12:13:17.996Z,21.70
2018-11-27T12:15:45.478Z,21.10
2018-11-27T12:18:13.170Z,21.67
2018-11-27T12:20:40.820Z,20.27
2018-11-27T12:23:09.909Z,21.93
2018-11-27T12:25:38.047Z,22.00
2018-11-27T12:28:08.060Z,22.33
2018-11-27T12:30:35.624Z,21.23
2018-11-27T12:33:03.158Z,20.83
2018-11-27T12:35:30.652Z,22.67
2018-11-27T12:37:58.143Z,20.77
2018-11-27T12:40:27.050Z,22.00
2018-11-27T12:42:55.130Z,21.43
2018-11-27T12:45:32.316Z,22.33
2018-11-27T12:48:01.567Z,20.20
2018-11-27T12:50:38.710Z,21.27
2018-11-27T12:53:07.741Z,20.50
2018-11-27T12:55:36.124Z,20.93
2018-11-27T12:58:03.790Z,21.73
2018-11-27T13:00:31.254Z,21.57
2018-11-27T13:02:58.773Z,22.37
2018-11-27T13:05:27.572Z,22.83
2018-11-27T13:07:57.938Z,22.37
2018-11-27T13:10:25.385Z,21.43
2018-11-27T13:12:53.635Z,20.67
2018-11-27T13:15:21.332Z,24.27
2018-11-27T13:17:50.107Z,21.77
2018-11-27T13:20:18.463Z,20.90
2018-11-27T13:22:46.338Z,20.10
2018-11-27T13:25:15.881Z,20.63
2018-11-27T13:27:43.546Z,20.37
2018-11-27T13:30:14.567Z,20.77
2018-11-27T13:32:42.322Z,20.77
2018-11-27T13:35:11.282Z,20.33
2018-11-27T13:37:39.032Z,21.23
2018-11-27T13:40:08.199Z,21.80
2018-11-27T13:42:35.739Z,20.63
2018-11-27T13:45:03.310Z,21.53
2018-11-27T13:47:30.826Z,19.57
2018-11-27T13:49:58.341Z,21.47
2018-11-27T13:52:25.776Z,18.87
2018-11-27T13:54:53.213Z,21.90
2018-11-27T13:57:20.762Z,20.00
2018-11-27T13:59:48.331Z,21.50
2018-11-27T14:02:15.984Z,21.00
2018-11-27T14:04:43.433Z,22.53
2018-11-27T14:07:10.940Z,21.13
2018-11-27T14:09:40.124Z,21.10
2018-11-27T14:12:07.876Z,21.53
2018-11-27T14:14:35.384Z,19.67
2018-11-27T14:17:03.032Z,20.90
2018-11-27T14:19:30.474Z,21.30
2018-11-27T14:21:58.123Z,21.53
2018-11-27T14:24:27.942Z,20.60
2018-11-27T14:26:55.422Z,19.50
2018-11-27T14:29:23.082Z,20.90
2018-11-27T14:31:50.578Z,20.57
2018-11-27T14:34:18.078Z,21.60
2018-11-27T14:36:45.587Z,24.43
2018-11-27T14:39:13.019Z,22.17
2018-11-27T14:41:40.444Z,21.40
2018-11-27T14:44:07.984Z,23.47
2018-11-27T14:46:35.410Z,23.10
2018-11-27T14:49:02.925Z,22.30
2018-11-27T14:51:30.423Z,22.23
2018-11-27T14:53:57.879Z,22.37
2018-11-27T14:56:25.343Z,20.80
2018-11-27T14:58:52.912Z,21.47
2018-11-27T15:01:20.350Z,22.70
2018-11-27T15:03:47.919Z,20.90
2018-11-27T15:06:15.403Z,21.07
2018-11-27T15:08:42.938Z,21.00
2018-11-27T15:11:12.741Z,21.90
2018-11-27T15:13:37.923Z,20.63
2018-11-27T15:16:05.492Z,20.80
2018-11-27T15:18:32.897Z,19.90
2018-11-27T15:21:00.353Z,21.40
2018-11-27T15:23:27.760Z,19.90
2018-11-27T15:25:55.300Z,22.47
2018-11-27T15:28:22.742Z,21.50
2018-11-27T15:30:50.329Z,22.40
2018-11-27T15:33:18.792Z,21.10
2018-11-27T15:35:45.326Z,20.50
2018-11-27T15:38:12.802Z,21.33
2018-11-27T15:40:40.405Z,20.97
2018-11-27T15:43:08.066Z,22.03
2018-11-27T15:45:36.260Z,21.63
2018-11-27T15:48:05.852Z,20.40
2018-11-27T15:50:33.328Z,21.77
2018-11-27T15:53:00.924Z,20.47
2018-11-27T15:57:55.564Z,20.33
2018-11-27T16:00:22.958Z,25.63
2018-11-27T16:02:50.651Z,23.70
2018-11-27T16:05:18.180Z,24.70
2018-11-27T16:07:45.740Z,23.60
2018-11-27T16:10:14.308Z,26.40
2018-11-27T16:12:41.912Z,24.30
2018-11-27T16:15:15.683Z,22.33
2018-11-27T16:17:43.483Z,21.77
2018-11-27T16:20:19.575Z,22.47
2018-11-27T16:22:48.250Z,22.63
2018-11-27T16:25:17.180Z,25.10
2018-11-27T16:27:44.780Z,22.57
2018-11-27T16:30:18.063Z,25.03
2018-11-27T16:32:45.614Z,21.40
2018-11-27T16:35:13.673Z,23.20
2018-11-27T16:37:41.956Z,21.30
2018-11-27T16:40:11.145Z,21.60
2018-11-27T16:42:38.723Z,21.07
2018-11-27T16:45:10.208Z,21.23
2018-11-27T16:47:37.759Z,21.63
2018-11-27T16:50:06.088Z,22.33
2018-11-27T16:52:33.626Z,21.40
2018-11-27T16:55:01.107Z,22.00
2018-11-27T16:57:28.709Z,21.77
2018-11-27T16:59:56.222Z,21.00
2018-11-27T17:02:23.764Z,21.87
2018-11-27T17:04:51.320Z,22.07
2018-11-27T17:07:18.990Z,22.30
2018-11-27T17:09:46.604Z,23.77
2018-11-27T17:12:14.879Z,20.90
2018-11-27T17:14:42.375Z,20.17
2018-11-27T17:17:09.900Z,21.57
2018-11-27T17:19:38.076Z,20.53
2018-11-27T17:22:07.118Z,20.27
2018-11-27T17:24:34.472Z,20.27
2018-11-27T17:27:02.669Z,21.37
2018-11-27T17:29:30.152Z,21.70
2018-11-27T17:31:57.620Z,22.73
2018-11-27T17:34:25.216Z,23.10
2018-11-27T17:36:52.716Z,21.27
2018-11-27T17:39:20.194Z,21.00
2018-11-27T17:41:48.463Z,20.47
2018-11-27T17:44:16.309Z,21.10
2018-11-27T17:46:43.936Z,21.03
2018-11-27T17:49:11.561Z,19.43
2018-11-27T17:51:39.124Z,21.70
2018-11-27T17:54:07.243Z,19.97
2018-11-27T17:56:34.721Z,21.57
2018-11-27T17:59:02.199Z,19.77
2018-11-27T18:01:29.969Z,21.00
2018-11-27T18:03:57.622Z,19.63
2018-11-27T18:06:25.222Z,21.27
2018-11-27T18:08:53.286Z,21.27
2018-11-27T18:11:21.016Z,20.30
2018-11-27T18:13:48.533Z,22.22
2018-11-27T18:16:16.137Z,19.87
2018-11-27T18:18:43.706Z,20.20
2018-11-27T18:21:11.253Z,20.73
2018-11-27T18:23:38.890Z,19.95
2018-11-27T18:26:06.451Z,20.27
2018-11-27T18:28:34.045Z,21.90
2018-11-27T18:31:01.781Z,21.62
2018-11-27T18:33:32.408Z,21.93
2018-11-27T18:36:00.537Z,21.97
2018-11-27T18:38:29.311Z,21.40
2018-11-27T18:40:58.582Z,20.00
2018-11-27T18:43:27.981Z,20.23
2018-11-27T18:45:56.957Z,19.60
2018-11-27T18:48:25.605Z,21.63
2018-11-27T18:50:54.529Z,22.10
2018-11-27T18:53:22.599Z,21.10
2018-11-27T18:55:50.115Z,20.70
2018-11-27T18:58:19.551Z,20.27
2018-11-27T19:00:47.888Z,21.60
2018-11-27T19:03:16.612Z,22.50
2018-11-27T19:05:45.430Z,22.62
2018-11-27T19:08:13.139Z,22.58
2018-11-27T19:10:40.758Z,20.77
2018-11-27T19:13:08.951Z,21.65
2018-11-27T19:15:39.695Z,20.43
2018-11-27T19:18:14.416Z,21.43
2018-11-27T19:20:41.921Z,21.95
2018-11-27T19:23:09.602Z,22.57
2018-11-27T19:25:37.173Z,22.57
2018-11-27T19:28:05.057Z,22.30
2018-11-27T19:30:32.784Z,24.60
2018-11-27T19:33:00.933Z,23.10
2018-11-27T19:35:28.661Z,24.67
2018-11-27T19:37:56.422Z,23.80
2018-11-27T19:40:24.105Z,23.20
2018-11-27T19:42:51.660Z,22.13
2018-11-27T19:45:22.690Z,23.73
2018-11-27T19:47:50.800Z,23.35
2018-11-27T19:50:19.373Z,24.00
2018-11-27T19:52:48.713Z,24.83
2018-11-27T19:55:17.081Z,28.80
2018-11-27T19:57:44.881Z,24.87
2018-11-27T20:00:22.460Z,25.03
2018-11-27T20:02:51.003Z,24.40
2018-11-27T20:05:25.479Z,27.27
2018-11-27T20:07:53.048Z,27.77
2018-11-27T20:10:20.855Z,29.80
2018-11-27T20:12:49.577Z,33.63
2018-11-27T20:15:19.593Z,31.90
2018-11-27T20:17:47.958Z,34.50
2018-11-27T20:20:16.559Z,31.87
2018-11-27T20:22:44.292Z,35.47
2018-11-27T20:25:13.393Z,34.83
2018-11-27T20:27:41.000Z,32.98
2018-11-27T20:30:12.504Z,33.83
2018-11-27T20:32:40.790Z,31.43
2018-11-27T20:35:10.336Z,32.35
2018-11-27T20:37:37.919Z,33.88
2018-11-27T20:40:09.337Z,39.67
2018-11-27T20:42:36.901Z,46.88
2018-11-27T20:45:06.505Z,40.55
2018-11-27T20:47:34.127Z,32.65
2018-11-27T20:50:01.845Z,30.77
2018-11-27T20:52:29.401Z,33.90
2018-11-27T20:54:56.918Z,32.53
2018-11-27T20:57:24.468Z,30.52
2018-11-27T20:59:52.898Z,27.97
2018-11-27T21:02:20.425Z,31.27
2018-11-27T21:04:48.004Z,29.70
2018-11-27T21:07:16.698Z,29.60
2018-11-27T21:09:44.354Z,28.60
2018-11-27T21:12:11.993Z,25.65
2018-11-27T21:14:39.675Z,25.23
2018-11-27T21:17:07.214Z,24.30
2018-11-27T21:19:34.776Z,26.40
2018-11-27T21:22:02.763Z,24.23
2018-11-27T21:24:30.257Z,25.93
2018-11-27T21:26:57.985Z,25.15
2018-11-27T21:29:25.665Z,27.20
2018-11-27T21:31:53.187Z,34.18
2018-11-27T21:34:20.706Z,31.40
2018-11-27T21:36:48.325Z,28.67
2018-11-27T21:39:16.096Z,27.10
2018-11-27T21:41:45.006Z,26.35
2018-11-27T21:44:12.544Z,24.10
2018-11-27T21:46:40.141Z,23.30
2018-11-27T21:49:07.688Z,24.25
2018-11-27T21:51:35.193Z,24.70
2018-11-27T21:54:03.559Z,24.18
2018-11-27T21:56:31.248Z,23.02
2018-11-27T21:58:59.943Z,21.80
2018-11-27T22:01:27.503Z,23.70
2018-11-27T22:03:56.151Z,24.30
2018-11-27T22:06:23.834Z,23.98
2018-11-27T22:08:51.898Z,24.25
2018-11-27T22:11:19.598Z,23.62
2018-11-27T22:13:47.554Z,24.90
2018-11-27T22:16:15.129Z,27.62
2018-11-27T22:18:42.892Z,24.82
2018-11-27T22:21:10.435Z,23.15
2018-11-27T22:23:38.189Z,25.72
2018-11-27T22:26:05.759Z,23.50
2018-11-27T22:28:33.377Z,23.40
2018-11-27T22:31:00.950Z,24.10
2018-11-27T22:33:28.592Z,25.25
2018-11-27T22:35:56.612Z,24.60
2018-11-27T22:38:24.137Z,22.90
2018-11-27T22:40:53.574Z,24.15
2018-11-27T22:43:21.128Z,22.00
2018-11-27T22:45:48.795Z,23.07
2018-11-27T22:48:16.406Z,22.93
2018-11-27T22:50:44.163Z,23.70
2018-11-27T22:53:11.931Z,24.57
2018-11-27T22:55:39.861Z,24.05
2018-11-27T22:58:07.825Z,24.70
2018-11-27T23:00:41.323Z,27.25
2018-11-27T23:03:08.900Z,25.62
2018-11-27T23:05:36.479Z,23.17
2018-11-27T23:08:04.510Z,25.10
2018-11-27T23:10:34.890Z,23.35
2018-11-27T23:13:03.056Z,24.63
2018-11-27T23:15:30.769Z,25.95
2018-11-27T23:17:58.395Z,25.62
2018-11-27T23:20:26.167Z,26.05
2018-11-27T23:22:54.025Z,22.90
2018-11-27T23:25:21.707Z,24.80
2018-11-27T23:27:50.260Z,22.22
2018-11-27T23:30:19.798Z,24.25
2018-11-27T23:32:48.097Z,23.92
2018-11-27T23:35:16.471Z,25.15
2018-11-27T23:37:44.060Z,23.20
2018-11-27T23:40:12.951Z,23.40
2018-11-27T23:42:42.024Z,25.17
2018-11-27T23:45:12.643Z,24.80
2018-11-27T23:47:40.891Z,23.87
2018-11-27T23:50:10.561Z,25.60
2018-11-27T23:52:38.284Z,23.55
2018-11-27T23:55:07.874Z,25.25
2018-11-27T23:57:35.870Z,24.87
